Terminal Aerodrome Forecast
Issued by NWS King Salmon, AK

Home | Current Version | Previous Version | Text Only | Print | Product List | Glossary On
Versions: 1 2 3 4 5 6 7 8 9 10 11 12 13 14 15 16 17 18 19 20 21 22 23
000
FTAK31 PANC 232332
TAFAKN
TAF
PAKN 232332Z 2400/2424 19010KT P6SM FEW015
      TEMPO 2406/2409 SCT005 BKN015
     FM240900 20010KT P6SM OVC005
     FM241000 20009KT 2SM BR OVC003
     FM241800 20008KT P6SM SCT003 OVC007=

USA.gov is the U.S. government's official web portal to all federal, state and local government web resources and services.